sensor_id;sensor_type;location;lat;lon;timestamp;P1;durP1;ratioP1;P2;durP2;ratioP2
21601;SDS011;10963;50.934;4.668;2024-02-21T00:02:20;17.07;;;6.43;;
21601;SDS011;10963;50.934;4.668;2024-02-21T00:04:48;18.83;;;7.00;;
21601;SDS011;10963;50.934;4.668;2024-02-21T00:07:14;14.30;;;6.60;;
21601;SDS011;10963;50.934;4.668;2024-02-21T00:09:40;19.23;;;7.13;;
21601;SDS011;10963;50.934;4.668;2024-02-21T00:12:06;22.33;;;7.93;;
21601;SDS011;10963;50.934;4.668;2024-02-21T00:14:32;17.83;;;7.40;;
21601;SDS011;10963;50.934;4.668;2024-02-21T00:16:57;20.83;;;7.77;;
21601;SDS011;10963;50.934;4.668;2024-02-21T00:19:24;14.97;;;7.77;;
21601;SDS011;10963;50.934;4.668;2024-02-21T00:21:49;15.10;;;7.90;;
21601;SDS011;10963;50.934;4.668;2024-02-21T00:24:15;15.27;;;7.00;;
21601;SDS011;10963;50.934;4.668;2024-02-21T00:26:43;20.93;;;7.00;;
21601;SDS011;10963;50.934;4.668;2024-02-21T00:29:09;17.37;;;6.87;;
21601;SDS011;10963;50.934;4.668;2024-02-21T00:31:34;19.87;;;6.77;;
21601;SDS011;10963;50.934;4.668;2024-02-21T00:34:02;19.67;;;6.97;;
21601;SDS011;10963;50.934;4.668;2024-02-21T00:36:30;21.17;;;7.03;;
21601;SDS011;10963;50.934;4.668;2024-02-21T00:38:56;19.17;;;6.70;;
21601;SDS011;10963;50.934;4.668;2024-02-21T00:41:22;17.40;;;7.03;;
21601;SDS011;10963;50.934;4.668;2024-02-21T00:43:50;15.27;;;6.53;;
21601;SDS011;10963;50.934;4.668;2024-02-21T00:46:16;16.13;;;6.57;;
21601;SDS011;10963;50.934;4.668;2024-02-21T00:48:44;17.20;;;5.87;;
21601;SDS011;10963;50.934;4.668;2024-02-21T00:51:12;16.57;;;6.93;;
21601;SDS011;10963;50.934;4.668;2024-02-21T00:53:37;12.37;;;5.93;;
21601;SDS011;10963;50.934;4.668;2024-02-21T00:56:04;17.13;;;6.23;;
21601;SDS011;10963;50.934;4.668;2024-02-21T00:58:33;19.80;;;7.00;;
21601;SDS011;10963;50.934;4.668;2024-02-21T01:01:01;12.67;;;5.60;;
21601;SDS011;10963;50.934;4.668;2024-02-21T01:03:28;15.00;;;5.93;;
21601;SDS011;10963;50.934;4.668;2024-02-21T01:05:53;16.23;;;6.50;;
21601;SDS011;10963;50.934;4.668;2024-02-21T01:08:21;19.73;;;6.47;;
21601;SDS011;10963;50.934;4.668;2024-02-21T01:10:47;13.90;;;5.13;;
21601;SDS011;10963;50.934;4.668;2024-02-21T01:13:13;12.47;;;5.37;;
21601;SDS011;10963;50.934;4.668;2024-02-21T01:15:43;11.53;;;5.33;;
21601;SDS011;10963;50.934;4.668;2024-02-21T01:18:08;10.33;;;5.93;;
21601;SDS011;10963;50.934;4.668;2024-02-21T01:20:34;12.33;;;5.23;;
21601;SDS011;10963;50.934;4.668;2024-02-21T01:23:00;14.10;;;5.73;;
21601;SDS011;10963;50.934;4.668;2024-02-21T01:25:25;16.47;;;6.60;;
21601;SDS011;10963;50.934;4.668;2024-02-21T01:27:51;24.13;;;9.53;;
21601;SDS011;10963;50.934;4.668;2024-02-21T01:30:17;22.00;;;8.23;;
21601;SDS011;10963;50.934;4.668;2024-02-21T01:32:43;16.63;;;8.70;;
21601;SDS011;10963;50.934;4.668;2024-02-21T01:35:08;21.10;;;9.80;;
21601;SDS011;10963;50.934;4.668;2024-02-21T01:37:39;21.43;;;9.40;;
21601;SDS011;10963;50.934;4.668;2024-02-21T01:40:05;24.53;;;10.17;;
21601;SDS011;10963;50.934;4.668;2024-02-21T01:42:37;26.20;;;9.30;;
21601;SDS011;10963;50.934;4.668;2024-02-21T01:45:04;20.33;;;9.50;;
21601;SDS011;10963;50.934;4.668;2024-02-21T01:47:32;24.57;;;9.63;;
21601;SDS011;10963;50.934;4.668;2024-02-21T01:49:59;26.80;;;9.50;;
21601;SDS011;10963;50.934;4.668;2024-02-21T01:52:27;22.80;;;9.73;;
21601;SDS011;10963;50.934;4.668;2024-02-21T01:54:56;17.63;;;8.77;;
21601;SDS011;10963;50.934;4.668;2024-02-21T01:57:23;24.10;;;9.97;;
21601;SDS011;10963;50.934;4.668;2024-02-21T01:59:49;23.07;;;9.30;;
21601;SDS011;10963;50.934;4.668;2024-02-21T02:02:15;30.10;;;10.57;;
21601;SDS011;10963;50.934;4.668;2024-02-21T02:04:41;18.50;;;9.60;;
21601;SDS011;10963;50.934;4.668;2024-02-21T02:07:08;26.13;;;9.83;;
21601;SDS011;10963;50.934;4.668;2024-02-21T02:09:34;25.40;;;10.00;;
21601;SDS011;10963;50.934;4.668;2024-02-21T02:12:04;19.93;;;7.80;;
21601;SDS011;10963;50.934;4.668;2024-02-21T02:14:30;24.70;;;9.33;;
21601;SDS011;10963;50.934;4.668;2024-02-21T02:16:56;21.70;;;9.17;;
21601;SDS011;10963;50.934;4.668;2024-02-21T02:19:22;23.57;;;9.67;;
21601;SDS011;10963;50.934;4.668;2024-02-21T02:22:01;29.27;;;10.57;;
21601;SDS011;10963;50.934;4.668;2024-02-21T02:24:41;22.43;;;8.73;;
21601;SDS011;10963;50.934;4.668;2024-02-21T02:27:09;23.57;;;9.60;;
21601;SDS011;10963;50.934;4.668;2024-02-21T02:29:35;24.77;;;9.10;;
21601;SDS011;10963;50.934;4.668;2024-02-21T02:32:00;22.30;;;9.07;;
21601;SDS011;10963;50.934;4.668;2024-02-21T02:34:26;25.00;;;9.73;;
21601;SDS011;10963;50.934;4.668;2024-02-21T02:36:55;20.90;;;9.27;;
21601;SDS011;10963;50.934;4.668;2024-02-21T02:39:21;26.53;;;9.50;;
21601;SDS011;10963;50.934;4.668;2024-02-21T02:41:49;23.33;;;9.80;;
21601;SDS011;10963;50.934;4.668;2024-02-21T02:44:15;20.00;;;8.03;;
21601;SDS011;10963;50.934;4.668;2024-02-21T02:46:41;27.47;;;9.60;;
21601;SDS011;10963;50.934;4.668;2024-02-21T02:49:07;17.77;;;8.60;;
21601;SDS011;10963;50.934;4.668;2024-02-21T02:51:32;20.73;;;8.33;;
21601;SDS011;10963;50.934;4.668;2024-02-21T02:53:58;15.93;;;8.07;;
21601;SDS011;10963;50.934;4.668;2024-02-21T02:56:27;19.93;;;8.10;;
21601;SDS011;10963;50.934;4.668;2024-02-21T02:58:53;24.33;;;9.17;;
21601;SDS011;10963;50.934;4.668;2024-02-21T03:01:18;20.33;;;8.20;;
21601;SDS011;10963;50.934;4.668;2024-02-21T03:03:47;21.27;;;8.17;;
21601;SDS011;10963;50.934;4.668;2024-02-21T03:06:14;15.27;;;7.97;;
21601;SDS011;10963;50.934;4.668;2024-02-21T03:08:42;19.37;;;6.87;;
21601;SDS011;10963;50.934;4.668;2024-02-21T03:11:10;20.47;;;7.73;;
21601;SDS011;10963;50.934;4.668;2024-02-21T03:13:36;21.47;;;8.27;;
21601;SDS011;10963;50.934;4.668;2024-02-21T03:16:02;19.13;;;7.83;;
21601;SDS011;10963;50.934;4.668;2024-02-21T03:18:31;20.50;;;8.03;;
21601;SDS011;10963;50.934;4.668;2024-02-21T03:20:56;15.17;;;7.70;;
21601;SDS011;10963;50.934;4.668;2024-02-21T03:23:22;17.10;;;8.93;;
21601;SDS011;10963;50.934;4.668;2024-02-21T03:25:48;19.43;;;8.20;;
21601;SDS011;10963;50.934;4.668;2024-02-21T03:28:13;16.97;;;7.90;;
21601;SDS011;10963;50.934;4.668;2024-02-21T03:30:40;21.80;;;8.10;;
21601;SDS011;10963;50.934;4.668;2024-02-21T03:33:06;19.23;;;8.30;;
21601;SDS011;10963;50.934;4.668;2024-02-21T03:35:31;17.50;;;8.47;;
21601;SDS011;10963;50.934;4.668;2024-02-21T03:38:04;18.33;;;8.33;;
21601;SDS011;10963;50.934;4.668;2024-02-21T03:40:32;19.73;;;7.83;;
21601;SDS011;10963;50.934;4.668;2024-02-21T03:42:58;17.33;;;7.83;;
21601;SDS011;10963;50.934;4.668;2024-02-21T03:45:24;22.87;;;8.30;;
21601;SDS011;10963;50.934;4.668;2024-02-21T03:47:52;19.53;;;7.77;;
21601;SDS011;10963;50.934;4.668;2024-02-21T03:50:17;22.10;;;8.43;;
21601;SDS011;10963;50.934;4.668;2024-02-21T03:52:43;17.37;;;8.90;;
21601;SDS011;10963;50.934;4.668;2024-02-21T03:55:11;18.73;;;8.47;;
21601;SDS011;10963;50.934;4.668;2024-02-21T03:57:37;18.27;;;8.70;;
21601;SDS011;10963;50.934;4.668;2024-02-21T04:00:03;27.93;;;9.40;;
21601;SDS011;10963;50.934;4.668;2024-02-21T04:02:30;18.60;;;9.33;;
21601;SDS011;10963;50.934;4.668;2024-02-21T04:04:58;19.83;;;8.33;;
21601;SDS011;10963;50.934;4.668;2024-02-21T04:07:24;19.43;;;9.07;;
21601;SDS011;10963;50.934;4.668;2024-02-21T04:09:52;16.83;;;8.20;;
21601;SDS011;10963;50.934;4.668;2024-02-21T04:12:22;20.40;;;8.97;;
21601;SDS011;10963;50.934;4.668;2024-02-21T04:14:50;23.80;;;9.23;;
21601;SDS011;10963;50.934;4.668;2024-02-21T04:17:16;24.57;;;10.60;;
21601;SDS011;10963;50.934;4.668;2024-02-21T04:19:44;19.97;;;9.43;;
21601;SDS011;10963;50.934;4.668;2024-02-21T04:22:10;21.00;;;8.13;;
21601;SDS011;10963;50.934;4.668;2024-02-21T04:24:35;18.57;;;8.67;;
21601;SDS011;10963;50.934;4.668;2024-02-21T04:27:01;22.27;;;9.13;;
21601;SDS011;10963;50.934;4.668;2024-02-21T04:29:27;21.93;;;7.87;;
21601;SDS011;10963;50.934;4.668;2024-02-21T04:31:56;20.87;;;7.90;;
21601;SDS011;10963;50.934;4.668;2024-02-21T04:34:23;20.80;;;8.63;;
21601;SDS011;10963;50.934;4.668;2024-02-21T04:36:52;19.17;;;8.63;;
21601;SDS011;10963;50.934;4.668;2024-02-21T04:39:20;18.13;;;7.83;;
21601;SDS011;10963;50.934;4.668;2024-02-21T04:41:48;18.37;;;7.97;;
21601;SDS011;10963;50.934;4.668;2024-02-21T04:44:13;24.03;;;8.83;;
21601;SDS011;10963;50.934;4.668;2024-02-21T04:46:47;16.43;;;9.07;;
21601;SDS011;10963;50.934;4.668;2024-02-21T04:49:12;18.40;;;8.60;;
21601;SDS011;10963;50.934;4.668;2024-02-21T04:51:39;19.97;;;9.33;;
21601;SDS011;10963;50.934;4.668;2024-02-21T04:54:06;17.37;;;8.57;;
21601;SDS011;10963;50.934;4.668;2024-02-21T04:56:31;25.43;;;9.23;;
21601;SDS011;10963;50.934;4.668;2024-02-21T04:58:57;19.27;;;8.67;;
21601;SDS011;10963;50.934;4.668;2024-02-21T05:01:23;21.13;;;9.27;;
21601;SDS011;10963;50.934;4.668;2024-02-21T05:03:49;18.10;;;8.63;;
21601;SDS011;10963;50.934;4.668;2024-02-21T05:06:14;17.43;;;9.10;;
21601;SDS011;10963;50.934;4.668;2024-02-21T05:08:40;21.60;;;9.20;;
21601;SDS011;10963;50.934;4.668;2024-02-21T05:11:06;25.33;;;9.30;;
21601;SDS011;10963;50.934;4.668;2024-02-21T05:13:32;17.60;;;8.87;;
21601;SDS011;10963;50.934;4.668;2024-02-21T05:15:57;21.17;;;8.90;;
21601;SDS011;10963;50.934;4.668;2024-02-21T05:18:26;22.87;;;9.00;;
21601;SDS011;10963;50.934;4.668;2024-02-21T05:20:53;20.43;;;8.47;;
21601;SDS011;10963;50.934;4.668;2024-02-21T05:23:19;25.13;;;9.70;;
21601;SDS011;10963;50.934;4.668;2024-02-21T05:25:47;20.43;;;8.40;;
21601;SDS011;10963;50.934;4.668;2024-02-21T05:28:16;19.47;;;8.93;;
21601;SDS011;10963;50.934;4.668;2024-02-21T05:30:42;21.33;;;8.60;;
21601;SDS011;10963;50.934;4.668;2024-02-21T05:33:08;17.43;;;8.20;;
21601;SDS011;10963;50.934;4.668;2024-02-21T05:35:36;13.70;;;7.83;;
21601;SDS011;10963;50.934;4.668;2024-02-21T05:38:02;16.33;;;8.87;;
21601;SDS011;10963;50.934;4.668;2024-02-21T05:40:36;18.60;;;7.67;;
21601;SDS011;10963;50.934;4.668;2024-02-21T05:43:02;17.63;;;8.13;;
21601;SDS011;10963;50.934;4.668;2024-02-21T05:45:30;21.23;;;8.37;;
21601;SDS011;10963;50.934;4.668;2024-02-21T05:47:55;17.67;;;8.30;;
21601;SDS011;10963;50.934;4.668;2024-02-21T05:50:24;17.97;;;7.67;;
21601;SDS011;10963;50.934;4.668;2024-02-21T05:52:54;16.23;;;7.83;;
21601;SDS011;10963;50.934;4.668;2024-02-21T05:55:23;15.87;;;7.17;;
21601;SDS011;10963;50.934;4.668;2024-02-21T05:57:53;13.40;;;7.90;;
21601;SDS011;10963;50.934;4.668;2024-02-21T06:00:22;15.73;;;6.93;;
21601;SDS011;10963;50.934;4.668;2024-02-21T06:02:50;14.13;;;7.30;;
21601;SDS011;10963;50.934;4.668;2024-02-21T06:05:16;19.20;;;7.27;;
21601;SDS011;10963;50.934;4.668;2024-02-21T06:07:42;16.50;;;7.23;;
21601;SDS011;10963;50.934;4.668;2024-02-21T06:10:08;12.83;;;6.80;;
21601;SDS011;10963;50.934;4.668;2024-02-21T06:12:36;15.03;;;7.20;;
21601;SDS011;10963;50.934;4.668;2024-02-21T06:15:02;13.20;;;6.73;;
21601;SDS011;10963;50.934;4.668;2024-02-21T06:17:28;17.37;;;7.00;;
21601;SDS011;10963;50.934;4.668;2024-02-21T06:19:56;10.90;;;6.00;;
21601;SDS011;10963;50.934;4.668;2024-02-21T06:22:22;12.17;;;5.87;;
21601;SDS011;10963;50.934;4.668;2024-02-21T06:24:50;11.63;;;5.70;;
21601;SDS011;10963;50.934;4.668;2024-02-21T06:27:16;12.93;;;6.37;;
21601;SDS011;10963;50.934;4.668;2024-02-21T06:29:42;10.57;;;6.20;;
21601;SDS011;10963;50.934;4.668;2024-02-21T06:32:08;12.43;;;6.47;;
21601;SDS011;10963;50.934;4.668;2024-02-21T06:34:36;12.40;;;6.47;;
21601;SDS011;10963;50.934;4.668;2024-02-21T06:37:02;15.83;;;6.27;;
21601;SDS011;10963;50.934;4.668;2024-02-21T06:39:28;11.17;;;5.87;;
21601;SDS011;10963;50.934;4.668;2024-02-21T06:41:56;9.93;;;5.20;;
21601;SDS011;10963;50.934;4.668;2024-02-21T06:44:24;12.77;;;6.00;;
21601;SDS011;10963;50.934;4.668;2024-02-21T06:46:53;9.43;;;5.13;;
21601;SDS011;10963;50.934;4.668;2024-02-21T06:49:19;9.03;;;5.87;;
21601;SDS011;10963;50.934;4.668;2024-02-21T06:51:45;10.63;;;5.23;;
21601;SDS011;10963;50.934;4.668;2024-02-21T06:54:11;12.30;;;5.13;;
21601;SDS011;10963;50.934;4.668;2024-02-21T06:56:37;10.17;;;5.43;;
21601;SDS011;10963;50.934;4.668;2024-02-21T06:59:03;9.70;;;5.20;;
21601;SDS011;10963;50.934;4.668;2024-02-21T07:01:32;10.83;;;6.00;;
21601;SDS011;10963;50.934;4.668;2024-02-21T07:03:57;9.07;;;5.37;;
21601;SDS011;10963;50.934;4.668;2024-02-21T07:06:23;8.07;;;5.47;;
21601;SDS011;10963;50.934;4.668;2024-02-21T07:08:49;16.00;;;5.37;;
21601;SDS011;10963;50.934;4.668;2024-02-21T07:11:15;12.87;;;6.17;;
21601;SDS011;10963;50.934;4.668;2024-02-21T07:13:43;10.20;;;5.53;;
21601;SDS011;10963;50.934;4.668;2024-02-21T07:16:09;8.93;;;4.90;;
21601;SDS011;10963;50.934;4.668;2024-02-21T07:18:37;10.80;;;5.97;;
21601;SDS011;10963;50.934;4.668;2024-02-21T07:21:03;10.30;;;5.80;;
21601;SDS011;10963;50.934;4.668;2024-02-21T07:23:29;12.10;;;6.37;;
21601;SDS011;10963;50.934;4.668;2024-02-21T07:25:54;8.83;;;6.33;;
21601;SDS011;10963;50.934;4.668;2024-02-21T07:28:22;14.07;;;7.00;;
21601;SDS011;10963;50.934;4.668;2024-02-21T07:30:48;11.67;;;6.63;;
21601;SDS011;10963;50.934;4.668;2024-02-21T07:33:14;11.10;;;6.20;;
21601;SDS011;10963;50.934;4.668;2024-02-21T07:35:40;14.27;;;7.10;;
21601;SDS011;10963;50.934;4.668;2024-02-21T07:38:10;11.90;;;6.87;;
21601;SDS011;10963;50.934;4.668;2024-02-21T07:40:37;12.43;;;7.13;;
21601;SDS011;10963;50.934;4.668;2024-02-21T07:43:03;12.37;;;7.23;;
21601;SDS011;10963;50.934;4.668;2024-02-21T07:45:29;14.53;;;7.20;;
21601;SDS011;10963;50.934;4.668;2024-02-21T07:47:57;16.57;;;7.87;;
21601;SDS011;10963;50.934;4.668;2024-02-21T07:50:22;19.03;;;8.20;;
21601;SDS011;10963;50.934;4.668;2024-02-21T07:52:48;14.20;;;7.73;;
21601;SDS011;10963;50.934;4.668;2024-02-21T07:55:14;18.43;;;8.33;;
21601;SDS011;10963;50.934;4.668;2024-02-21T07:57:43;13.37;;;6.97;;
21601;SDS011;10963;50.934;4.668;2024-02-21T08:00:11;20.83;;;8.37;;
21601;SDS011;10963;50.934;4.668;2024-02-21T08:02:47;11.87;;;7.10;;
21601;SDS011;10963;50.934;4.668;2024-02-21T08:05:14;14.33;;;7.97;;
21601;SDS011;10963;50.934;4.668;2024-02-21T08:07:39;18.00;;;8.60;;
21601;SDS011;10963;50.934;4.668;2024-02-21T08:10:05;16.17;;;7.90;;
21601;SDS011;10963;50.934;4.668;2024-02-21T08:12:37;14.77;;;7.10;;
21601;SDS011;10963;50.934;4.668;2024-02-21T08:15:07;14.53;;;7.30;;
21601;SDS011;10963;50.934;4.668;2024-02-21T08:17:38;18.07;;;7.63;;
21601;SDS011;10963;50.934;4.668;2024-02-21T08:20:06;17.83;;;7.70;;
21601;SDS011;10963;50.934;4.668;2024-02-21T08:22:32;17.57;;;7.57;;
21601;SDS011;10963;50.934;4.668;2024-02-21T08:24:57;13.17;;;7.63;;
21601;SDS011;10963;50.934;4.668;2024-02-21T08:27:24;15.70;;;8.10;;
21601;SDS011;10963;50.934;4.668;2024-02-21T08:29:50;18.47;;;7.90;;
21601;SDS011;10963;50.934;4.668;2024-02-21T08:32:16;17.13;;;8.40;;
21601;SDS011;10963;50.934;4.668;2024-02-21T08:34:41;12.60;;;7.43;;
21601;SDS011;10963;50.934;4.668;2024-02-21T08:37:07;16.63;;;7.70;;
21601;SDS011;10963;50.934;4.668;2024-02-21T08:39:33;17.07;;;7.83;;
21601;SDS011;10963;50.934;4.668;2024-02-21T08:42:01;17.83;;;7.90;;
21601;SDS011;10963;50.934;4.668;2024-02-21T08:44:29;12.83;;;7.40;;
21601;SDS011;10963;50.934;4.668;2024-02-21T08:46:55;14.53;;;7.60;;
21601;SDS011;10963;50.934;4.668;2024-02-21T08:49:23;15.03;;;7.33;;
21601;SDS011;10963;50.934;4.668;2024-02-21T08:51:51;14.77;;;7.30;;
21601;SDS011;10963;50.934;4.668;2024-02-21T08:54:16;20.10;;;7.57;;
21601;SDS011;10963;50.934;4.668;2024-02-21T08:56:42;17.77;;;6.50;;
21601;SDS011;10963;50.934;4.668;2024-02-21T08:59:08;14.20;;;6.33;;
21601;SDS011;10963;50.934;4.668;2024-02-21T09:01:36;17.43;;;7.23;;
21601;SDS011;10963;50.934;4.668;2024-02-21T09:04:02;13.43;;;6.13;;
21601;SDS011;10963;50.934;4.668;2024-02-21T09:06:30;13.17;;;6.30;;
21601;SDS011;10963;50.934;4.668;2024-02-21T09:08:58;14.50;;;6.17;;
21601;SDS011;10963;50.934;4.668;2024-02-21T09:11:24;12.60;;;5.43;;
21601;SDS011;10963;50.934;4.668;2024-02-21T09:13:49;10.10;;;5.57;;
21601;SDS011;10963;50.934;4.668;2024-02-21T09:16:15;9.77;;;5.07;;
21601;SDS011;10963;50.934;4.668;2024-02-21T09:18:41;10.80;;;4.87;;
21601;SDS011;10963;50.934;4.668;2024-02-21T09:21:09;9.70;;;5.63;;
21601;SDS011;10963;50.934;4.668;2024-02-21T09:23:35;11.07;;;5.17;;
21601;SDS011;10963;50.934;4.668;2024-02-21T09:26:01;12.30;;;5.10;;
21601;SDS011;10963;50.934;4.668;2024-02-21T09:28:29;14.40;;;4.93;;
21601;SDS011;10963;50.934;4.668;2024-02-21T09:30:55;10.90;;;4.73;;
21601;SDS011;10963;50.934;4.668;2024-02-21T09:33:21;9.37;;;4.63;;
21601;SDS011;10963;50.934;4.668;2024-02-21T09:35:49;9.97;;;5.27;;
21601;SDS011;10963;50.934;4.668;2024-02-21T09:38:14;7.20;;;4.63;;
21601;SDS011;10963;50.934;4.668;2024-02-21T09:40:43;10.63;;;4.73;;
21601;SDS011;10963;50.934;4.668;2024-02-21T09:43:09;13.17;;;5.10;;
21601;SDS011;10963;50.934;4.668;2024-02-21T09:45:35;10.73;;;4.87;;
21601;SDS011;10963;50.934;4.668;2024-02-21T09:50:52;10.37;;;4.50;;
21601;SDS011;10963;50.934;4.668;2024-02-21T09:53:24;10.73;;;4.27;;
21601;SDS011;10963;50.934;4.668;2024-02-21T09:55:50;9.37;;;4.30;;
21601;SDS011;10963;50.934;4.668;2024-02-21T09:58:18;9.63;;;4.30;;
21601;SDS011;10963;50.934;4.668;2024-02-21T10:00:44;7.10;;;4.07;;
21601;SDS011;10963;50.934;4.668;2024-02-21T10:03:12;10.53;;;4.73;;
21601;SDS011;10963;50.934;4.668;2024-02-21T10:05:38;8.93;;;4.67;;
21601;SDS011;10963;50.934;4.668;2024-02-21T10:08:13;11.60;;;4.77;;
21601;SDS011;10963;50.934;4.668;2024-02-21T10:10:42;12.37;;;4.20;;
21601;SDS011;10963;50.934;4.668;2024-02-21T10:13:10;6.50;;;4.27;;
21601;SDS011;10963;50.934;4.668;2024-02-21T10:15:49;8.83;;;4.97;;
21601;SDS011;10963;50.934;4.668;2024-02-21T10:18:32;9.03;;;4.37;;
21601;SDS011;10963;50.934;4.668;2024-02-21T10:23:28;12.13;;;5.00;;
21601;SDS011;10963;50.934;4.668;2024-02-21T10:25:54;9.03;;;4.20;;
21601;SDS011;10963;50.934;4.668;2024-02-21T10:28:30;11.20;;;4.47;;
21601;SDS011;10963;50.934;4.668;2024-02-21T10:30:58;10.63;;;4.30;;
21601;SDS011;10963;50.934;4.668;2024-02-21T10:33:26;12.20;;;4.67;;
21601;SDS011;10963;50.934;4.668;2024-02-21T10:35:53;9.90;;;5.20;;
21601;SDS011;10963;50.934;4.668;2024-02-21T10:38:19;9.40;;;4.63;;
21601;SDS011;10963;50.934;4.668;2024-02-21T10:40:49;9.07;;;4.83;;
21601;SDS011;10963;50.934;4.668;2024-02-21T10:43:17;8.67;;;4.77;;
21601;SDS011;10963;50.934;4.668;2024-02-21T10:45:44;11.07;;;4.40;;
21601;SDS011;10963;50.934;4.668;2024-02-21T10:48:13;10.57;;;4.57;;
21601;SDS011;10963;50.934;4.668;2024-02-21T10:51:01;10.47;;;4.43;;
21601;SDS011;10963;50.934;4.668;2024-02-21T10:58:53;9.10;;;3.73;;
21601;SDS011;10963;50.934;4.668;2024-02-21T11:01:21;9.17;;;4.17;;
21601;SDS011;10963;50.934;4.668;2024-02-21T11:03:48;5.67;;;4.00;;
21601;SDS011;10963;50.934;4.668;2024-02-21T11:06:19;8.27;;;4.13;;
21601;SDS011;10963;50.934;4.668;2024-02-21T11:08:47;10.53;;;4.37;;
21601;SDS011;10963;50.934;4.668;2024-02-21T11:11:15;12.00;;;4.87;;
21601;SDS011;10963;50.934;4.668;2024-02-21T11:13:45;8.30;;;3.67;;
21601;SDS011;10963;50.934;4.668;2024-02-21T11:16:22;7.13;;;4.17;;
21601;SDS011;10963;50.934;4.668;2024-02-21T11:18:48;8.23;;;3.93;;
21601;SDS011;10963;50.934;4.668;2024-02-21T11:21:14;7.77;;;3.90;;
21601;SDS011;10963;50.934;4.668;2024-02-21T11:23:42;6.03;;;3.63;;
21601;SDS011;10963;50.934;4.668;2024-02-21T11:26:09;9.13;;;4.20;;
21601;SDS011;10963;50.934;4.668;2024-02-21T11:28:35;5.87;;;4.03;;
21601;SDS011;10963;50.934;4.668;2024-02-21T11:31:12;8.07;;;3.50;;
21601;SDS011;10963;50.934;4.668;2024-02-21T11:33:41;8.03;;;3.27;;
21601;SDS011;10963;50.934;4.668;2024-02-21T11:36:23;7.63;;;4.30;;
21601;SDS011;10963;50.934;4.668;2024-02-21T11:38:52;7.83;;;3.40;;
21601;SDS011;10963;50.934;4.668;2024-02-21T11:41:20;6.77;;;3.30;;
21601;SDS011;10963;50.934;4.668;2024-02-21T11:43:48;8.73;;;3.23;;
21601;SDS011;10963;50.934;4.668;2024-02-21T11:46:14;7.03;;;3.33;;
21601;SDS011;10963;50.934;4.668;2024-02-21T11:48:42;8.33;;;3.40;;
21601;SDS011;10963;50.934;4.668;2024-02-21T11:51:20;6.50;;;3.03;;
21601;SDS011;10963;50.934;4.668;2024-02-21T11:53:48;4.77;;;3.03;;
21601;SDS011;10963;50.934;4.668;2024-02-21T11:56:13;6.03;;;3.20;;
21601;SDS011;10963;50.934;4.668;2024-02-21T11:58:41;7.27;;;3.03;;
21601;SDS011;10963;50.934;4.668;2024-02-21T12:01:08;5.70;;;2.67;;
21601;SDS011;10963;50.934;4.668;2024-02-21T12:03:42;7.20;;;2.90;;
21601;SDS011;10963;50.934;4.668;2024-02-21T12:06:14;6.83;;;2.80;;
21601;SDS011;10963;50.934;4.668;2024-02-21T12:08:44;6.57;;;3.10;;
21601;SDS011;10963;50.934;4.668;2024-02-21T12:11:16;7.30;;;2.97;;
21601;SDS011;10963;50.934;4.668;2024-02-21T12:13:46;7.77;;;3.17;;
21601;SDS011;10963;50.934;4.668;2024-02-21T12:16:23;5.50;;;3.43;;
21601;SDS011;10963;50.934;4.668;2024-02-21T12:18:52;3.73;;;2.43;;
21601;SDS011;10963;50.934;4.668;2024-02-21T12:21:29;7.47;;;3.10;;
21601;SDS011;10963;50.934;4.668;2024-02-21T12:23:57;9.73;;;3.37;;
21601;SDS011;10963;50.934;4.668;2024-02-21T12:26:24;5.20;;;2.57;;
21601;SDS011;10963;50.934;4.668;2024-02-21T12:28:50;6.43;;;2.97;;
21601;SDS011;10963;50.934;4.668;2024-02-21T12:31:16;7.73;;;3.03;;
21601;SDS011;10963;50.934;4.668;2024-02-21T12:33:45;6.70;;;2.83;;
21601;SDS011;10963;50.934;4.668;2024-02-21T12:36:10;7.20;;;2.90;;
21601;SDS011;10963;50.934;4.668;2024-02-21T12:38:36;6.13;;;3.77;;
21601;SDS011;10963;50.934;4.668;2024-02-21T12:41:02;6.33;;;3.30;;
21601;SDS011;10963;50.934;4.668;2024-02-21T12:43:32;6.23;;;3.00;;
21601;SDS011;10963;50.934;4.668;2024-02-21T12:45:59;9.73;;;3.40;;
21601;SDS011;10963;50.934;4.668;2024-02-21T12:48:27;4.70;;;3.67;;
21601;SDS011;10963;50.934;4.668;2024-02-21T12:50:53;10.00;;;4.30;;
21601;SDS011;10963;50.934;4.668;2024-02-21T12:53:19;7.37;;;3.40;;
21601;SDS011;10963;50.934;4.668;2024-02-21T12:55:47;8.87;;;3.10;;
21601;SDS011;10963;50.934;4.668;2024-02-21T12:58:14;8.17;;;3.50;;
21601;SDS011;10963;50.934;4.668;2024-02-21T13:00:40;7.60;;;3.23;;
21601;SDS011;10963;50.934;4.668;2024-02-21T13:03:06;6.47;;;3.00;;
21601;SDS011;10963;50.934;4.668;2024-02-21T13:05:35;6.20;;;3.40;;
21601;SDS011;10963;50.934;4.668;2024-02-21T13:08:03;6.43;;;3.20;;
21601;SDS011;10963;50.934;4.668;2024-02-21T13:10:34;7.97;;;3.67;;
21601;SDS011;10963;50.934;4.668;2024-02-21T13:13:03;5.67;;;3.10;;
21601;SDS011;10963;50.934;4.668;2024-02-21T13:15:28;7.17;;;3.30;;
21601;SDS011;10963;50.934;4.668;2024-02-21T13:17:57;5.43;;;3.53;;
21601;SDS011;10963;50.934;4.668;2024-02-21T13:20:24;9.93;;;3.30;;
21601;SDS011;10963;50.934;4.668;2024-02-21T13:22:50;6.10;;;3.33;;
21601;SDS011;10963;50.934;4.668;2024-02-21T13:25:16;6.50;;;3.23;;
21601;SDS011;10963;50.934;4.668;2024-02-21T13:27:45;8.30;;;4.17;;
21601;SDS011;10963;50.934;4.668;2024-02-21T13:30:13;11.10;;;4.07;;
21601;SDS011;10963;50.934;4.668;2024-02-21T13:32:41;9.40;;;4.00;;
21601;SDS011;10963;50.934;4.668;2024-02-21T13:35:12;9.17;;;3.23;;
21601;SDS011;10963;50.934;4.668;2024-02-21T13:37:41;8.43;;;3.30;;
21601;SDS011;10963;50.934;4.668;2024-02-21T13:40:09;5.07;;;3.33;;
21601;SDS011;10963;50.934;4.668;2024-02-21T13:42:36;13.03;;;3.67;;
21601;SDS011;10963;50.934;4.668;2024-02-21T13:45:03;6.43;;;3.50;;
21601;SDS011;10963;50.934;4.668;2024-02-21T13:47:33;6.50;;;3.83;;
21601;SDS011;10963;50.934;4.668;2024-02-21T13:49:59;8.50;;;4.27;;
21601;SDS011;10963;50.934;4.668;2024-02-21T13:52:25;8.50;;;3.63;;
21601;SDS011;10963;50.934;4.668;2024-02-21T13:54:51;11.00;;;3.57;;
21601;SDS011;10963;50.934;4.668;2024-02-21T13:57:17;8.07;;;3.83;;
21601;SDS011;10963;50.934;4.668;2024-02-21T13:59:43;9.80;;;3.83;;
21601;SDS011;10963;50.934;4.668;2024-02-21T14:02:09;7.67;;;4.00;;
21601;SDS011;10963;50.934;4.668;2024-02-21T14:04:38;10.30;;;3.80;;
21601;SDS011;10963;50.934;4.668;2024-02-21T14:07:06;10.20;;;4.60;;
21601;SDS011;10963;50.934;4.668;2024-02-21T14:09:32;5.13;;;3.57;;
21601;SDS011;10963;50.934;4.668;2024-02-21T14:11:58;9.33;;;4.00;;
21601;SDS011;10963;50.934;4.668;2024-02-21T14:14:24;7.00;;;3.80;;
21601;SDS011;10963;50.934;4.668;2024-02-21T14:16:52;7.77;;;4.40;;
21601;SDS011;10963;50.934;4.668;2024-02-21T14:19:21;8.87;;;4.67;;
21601;SDS011;10963;50.934;4.668;2024-02-21T14:21:47;7.80;;;4.43;;
21601;SDS011;10963;50.934;4.668;2024-02-21T14:24:12;8.90;;;4.53;;
21601;SDS011;10963;50.934;4.668;2024-02-21T14:26:40;12.07;;;4.80;;
21601;SDS011;10963;50.934;4.668;2024-02-21T14:29:06;9.57;;;4.40;;
21601;SDS011;10963;50.934;4.668;2024-02-21T14:31:32;12.57;;;5.13;;
21601;SDS011;10963;50.934;4.668;2024-02-21T14:33:58;6.33;;;4.63;;
21601;SDS011;10963;50.934;4.668;2024-02-21T14:36:25;10.97;;;4.77;;
21601;SDS011;10963;50.934;4.668;2024-02-21T14:38:51;10.10;;;4.80;;
21601;SDS011;10963;50.934;4.668;2024-02-21T14:41:20;7.77;;;3.83;;
21601;SDS011;10963;50.934;4.668;2024-02-21T14:43:45;7.03;;;4.97;;
21601;SDS011;10963;50.934;4.668;2024-02-21T14:46:11;8.47;;;3.93;;
21601;SDS011;10963;50.934;4.668;2024-02-21T14:48:39;12.27;;;4.60;;
21601;SDS011;10963;50.934;4.668;2024-02-21T14:51:08;6.97;;;4.47;;